createdAt,value
2023-05-24T00:00:19.221Z,92827.31
2023-05-24T00:01:51.363Z,92828.41
2023-05-24T00:03:23.626Z,92826.50
2023-05-24T00:04:56.377Z,92825.38
2023-05-24T00:06:28.637Z,92827.75
2023-05-24T00:08:00.364Z,92825.72
2023-05-24T00:09:32.210Z,92821.28
2023-05-24T00:11:04.105Z,92826.09
2023-05-24T00:12:35.795Z,92830.09
2023-05-24T00:14:07.922Z,92824.53
2023-05-24T00:15:39.839Z,92826.13
2023-05-24T00:17:12.990Z,92825.81
2023-05-24T00:18:47.117Z,92827.38
2023-05-24T00:20:21.009Z,92825.81
2023-05-24T00:21:52.965Z,92823.75
2023-05-24T00:23:25.705Z,92824.41
2023-05-24T00:24:57.385Z,92830.94
2023-05-24T00:26:29.044Z,92823.94
2023-05-24T00:28:00.893Z,92822.38
2023-05-24T00:29:32.773Z,92826.94
2023-05-24T00:31:04.423Z,92826.16
2023-05-24T00:32:36.116Z,92830.28
2023-05-24T00:34:08.218Z,92833.66
2023-05-24T00:35:39.822Z,92828.91
2023-05-24T00:37:13.120Z,92825.72
2023-05-24T00:38:44.833Z,92826.84
2023-05-24T00:40:16.741Z,92828.94
2023-05-24T00:41:48.542Z,92820.22
2023-05-24T00:43:20.725Z,92818.16
2023-05-24T00:44:52.678Z,92825.03
2023-05-24T00:46:34.198Z,92818.38
2023-05-24T00:48:06.328Z,92811.56
2023-05-24T00:49:38.059Z,92819.19
2023-05-24T00:51:10.233Z,92821.22
2023-05-24T00:52:42.802Z,92814.56
2023-05-24T00:54:15.194Z,92823.34
2023-05-24T00:55:47.068Z,92823.19
2023-05-24T00:57:19.260Z,92826.06
2023-05-24T00:58:51.363Z,92821.78
2023-05-24T01:00:23.733Z,92817.19
2023-05-24T01:01:56.151Z,92816.38
2023-05-24T01:03:30.946Z,92821.00
2023-05-24T01:05:03.281Z,92823.22
2023-05-24T01:06:37.544Z,92824.66
2023-05-24T01:08:16.020Z,92825.44
2023-05-24T01:09:53.635Z,92827.66
2023-05-24T01:11:32.116Z,92831.34
2023-05-24T01:13:17.841Z,92821.19
2023-05-24T01:14:52.471Z,92826.09
2023-05-24T01:16:47.142Z,92825.94
2023-05-24T01:18:31.743Z,92830.91
2023-05-24T01:20:07.030Z,92826.59
2023-05-24T01:21:56.462Z,92833.13
2023-05-24T01:23:32.473Z,92823.75
2023-05-24T01:25:04.113Z,92833.91
2023-05-24T01:26:54.589Z,92833.28
2023-05-24T01:28:26.360Z,92836.63
2023-05-24T01:29:58.438Z,92837.72
2023-05-24T01:31:30.157Z,92845.69
2023-05-24T01:33:02.237Z,92841.72
2023-05-24T01:34:33.952Z,92840.94
2023-05-24T01:36:05.736Z,92840.13
2023-05-24T01:37:37.354Z,92835.22
2023-05-24T01:39:10.191Z,92837.41
2023-05-24T01:40:42.615Z,92834.09
2023-05-24T01:42:21.602Z,92839.97
2023-05-24T01:44:16.871Z,92841.88
2023-05-24T01:46:07.581Z,92840.09
2023-05-24T01:47:58.009Z,92841.19
2023-05-24T01:49:31.257Z,92835.03
2023-05-24T01:51:05.739Z,92845.34
2023-05-24T01:52:37.364Z,92841.88
2023-05-24T01:54:09.768Z,92836.47
2023-05-24T01:55:41.327Z,92833.28
2023-05-24T01:57:13.229Z,92837.72
2023-05-24T01:58:45.192Z,92837.59
2023-05-24T02:00:17.506Z,92833.16
2023-05-24T02:01:49.708Z,92830.59
2023-05-24T02:03:21.387Z,92839.34
2023-05-24T02:04:52.949Z,92836.19
2023-05-24T02:06:24.691Z,92828.41
2023-05-24T02:07:56.348Z,92821.44
2023-05-24T02:09:27.927Z,92821.91
2023-05-24T02:11:00.085Z,92825.22
2023-05-24T02:12:31.838Z,92830.78
2023-05-24T02:14:03.934Z,92831.09
2023-05-24T02:15:35.710Z,92824.09
2023-05-24T02:17:07.248Z,92828.72
2023-05-24T02:18:38.938Z,92834.91
2023-05-24T02:20:11.176Z,92823.97
2023-05-24T02:21:42.997Z,92829.22
2023-05-24T02:23:14.796Z,92827.63
2023-05-24T02:24:48.661Z,92825.09
2023-05-24T02:26:20.245Z,92823.84
2023-05-24T02:27:52.231Z,92824.16
2023-05-24T02:29:23.901Z,92825.09
2023-05-24T02:30:55.702Z,92826.03
2023-05-24T02:32:27.325Z,92824.75
2023-05-24T02:33:59.071Z,92822.06
2023-05-24T02:35:30.781Z,92815.88
2023-05-24T02:37:02.483Z,92815.75
2023-05-24T02:38:34.121Z,92814.47
2023-05-24T02:40:06.643Z,92813.03
2023-05-24T02:41:38.293Z,92814.47
2023-05-24T02:43:10.673Z,92813.66
2023-05-24T02:44:43.001Z,92813.66
2023-05-24T02:46:16.112Z,92812.56
2023-05-24T02:47:47.982Z,92809.06
2023-05-24T02:49:19.597Z,92814.47
2023-05-24T02:50:51.448Z,92809.06
2023-05-24T02:52:23.526Z,92810.66
2023-05-24T02:53:55.116Z,92806.06
2023-05-24T02:55:27.068Z,92806.69
2023-05-24T02:56:58.792Z,92807.31
2023-05-24T02:58:30.671Z,92804.78
2023-05-24T03:00:02.416Z,92807.63
2023-05-24T03:01:34.574Z,92806.69
2023-05-24T03:03:06.655Z,92799.25
2023-05-24T03:04:38.295Z,92810.97
2023-05-24T03:06:10.131Z,92810.66
2023-05-24T03:07:42.933Z,92806.84
2023-05-24T03:09:16.933Z,92810.66
2023-05-24T03:10:48.598Z,92815.72
2023-05-24T03:12:20.382Z,92819.84
2023-05-24T03:13:52.146Z,92813.16
2023-05-24T03:15:24.352Z,92815.88
2023-05-24T03:16:55.899Z,92820.47
2023-05-24T03:18:27.791Z,92829.34
2023-05-24T03:19:59.395Z,92827.13
2023-05-24T03:21:32.552Z,92826.97
2023-05-24T03:23:04.578Z,92829.97
2023-05-24T03:24:38.753Z,92824.44
2023-05-24T03:26:10.649Z,92835.50
2023-05-24T03:27:42.931Z,92835.81
2023-05-24T03:29:14.489Z,92837.28
2023-05-24T03:30:46.535Z,92836.00
2023-05-24T03:32:18.266Z,92829.34
2023-05-24T03:33:49.959Z,92829.34
2023-05-24T03:35:21.519Z,92829.94
2023-05-24T03:36:53.267Z,92825.22
2023-05-24T03:38:25.328Z,92825.66
2023-05-24T03:39:57.040Z,92829.81
2023-05-24T03:41:28.829Z,92835.81
2023-05-24T03:43:00.825Z,92834.72
2023-05-24T03:44:32.408Z,92837.13
2023-05-24T03:46:04.024Z,92847.41
2023-05-24T03:47:35.642Z,92851.69
2023-05-24T03:49:07.507Z,92838.09
2023-05-24T03:50:39.204Z,92846.78
2023-05-24T03:52:10.885Z,92845.69
2023-05-24T03:53:42.511Z,92842.50
2023-05-24T03:55:15.331Z,92849.31
2023-05-24T03:56:47.082Z,92853.28
2023-05-24T03:58:18.675Z,92856.63
2023-05-24T03:59:50.358Z,92860.72
2023-05-24T04:01:33.487Z,92854.81
2023-05-24T04:03:09.439Z,92858.75
2023-05-24T04:04:41.380Z,92865.59
2023-05-24T04:06:15.108Z,92855.06
2023-05-24T04:07:48.018Z,92864.59
2023-05-24T04:09:19.800Z,92864.09
2023-05-24T04:10:51.442Z,92862.81
2023-05-24T04:12:24.686Z,92862.94
2023-05-24T04:13:58.789Z,92863.69
2023-05-24T04:15:31.703Z,92854.31
2023-05-24T04:17:04.709Z,92867.44
2023-05-24T04:18:37.190Z,92869.16
2023-05-24T04:20:09.949Z,92869.72
2023-05-24T04:21:42.319Z,92868.09
2023-05-24T04:23:14.287Z,92862.03
2023-05-24T04:24:46.631Z,92863.94
2023-05-24T04:26:18.545Z,92868.22
2023-05-24T04:27:51.870Z,92870.13
2023-05-24T04:29:26.789Z,92865.78
2023-05-24T04:30:59.102Z,92866.19
2023-05-24T04:32:30.824Z,92862.53
2023-05-24T04:34:03.356Z,92865.66
2023-05-24T04:35:35.899Z,92861.34
2023-05-24T04:37:08.176Z,92864.75
2023-05-24T04:38:39.951Z,92862.31
2023-05-24T04:40:12.370Z,92868.78
2023-05-24T04:41:44.567Z,92867.13
2023-05-24T04:43:16.409Z,92868.84
2023-05-24T04:44:48.016Z,92868.28
2023-05-24T04:46:19.752Z,92872.53
2023-05-24T04:47:51.833Z,92868.63
2023-05-24T04:49:23.643Z,92870.09
2023-05-24T04:50:55.657Z,92878.09
2023-05-24T04:52:27.935Z,92872.81
2023-05-24T04:54:00.754Z,92877.09
2023-05-24T04:55:32.919Z,92884.59
2023-05-24T04:57:04.665Z,92876.97
2023-05-24T04:58:38.165Z,92881.28
2023-05-24T05:00:11.511Z,92879.03
2023-05-24T05:01:43.664Z,92878.25
2023-05-24T05:03:16.153Z,92871.72
2023-05-24T05:04:47.858Z,92879.94
2023-05-24T05:06:19.758Z,92880.72
2023-05-24T05:07:51.787Z,92880.06
2023-05-24T05:09:24.941Z,92878.03
2023-05-24T05:10:56.992Z,92887.28
2023-05-24T05:12:28.738Z,92881.72
2023-05-24T05:14:00.824Z,92888.72
2023-05-24T05:15:32.737Z,92887.59
2023-05-24T05:17:04.625Z,92884.91
2023-05-24T05:18:36.522Z,92885.16
2023-05-24T05:20:08.513Z,92887.50
2023-05-24T05:21:40.324Z,92884.25
2023-05-24T05:23:12.145Z,92895.75
2023-05-24T05:24:43.833Z,92890.84
2023-05-24T05:26:15.636Z,92886.53
2023-05-24T05:27:47.292Z,92883.72
2023-05-24T05:29:19.033Z,92877.03
2023-05-24T05:30:50.865Z,92884.72
2023-05-24T05:32:23.164Z,92883.59
2023-05-24T05:33:55.346Z,92879.63
2023-05-24T05:35:26.966Z,92882.56
2023-05-24T05:36:58.717Z,92880.16
2023-05-24T05:38:30.833Z,92878.31
2023-05-24T05:40:02.483Z,92887.44
2023-05-24T05:41:34.215Z,92874.63
2023-05-24T05:43:06.109Z,92879.66
2023-05-24T05:44:39.350Z,92886.59
2023-05-24T05:46:11.829Z,92888.22
2023-05-24T05:47:43.675Z,92887.03
2023-05-24T05:49:15.981Z,92889.38
2023-05-24T05:50:47.851Z,92898.59
2023-05-24T05:52:19.592Z,92893.94
2023-05-24T05:53:51.761Z,92897.44
2023-05-24T05:55:23.657Z,92892.88
2023-05-24T05:56:55.739Z,92895.00
2023-05-24T05:58:27.813Z,92907.94
2023-05-24T05:59:59.365Z,92901.09
2023-05-24T06:01:30.991Z,92896.00
2023-05-24T06:03:02.620Z,92894.81
2023-05-24T06:04:34.967Z,92905.59
2023-05-24T06:06:06.837Z,92901.38
2023-05-24T06:07:38.846Z,92898.31
2023-05-24T06:09:10.492Z,92903.34
2023-05-24T06:10:42.421Z,92902.63
2023-05-24T06:12:16.602Z,92895.13
2023-05-24T06:13:48.379Z,92895.25
2023-05-24T06:15:22.976Z,92895.25
2023-05-24T06:16:56.189Z,92901.28
2023-05-24T06:18:30.737Z,92901.41
2023-05-24T06:20:06.589Z,92901.75
2023-05-24T06:21:38.776Z,92902.00
2023-05-24T06:23:10.553Z,92905.50
2023-05-24T06:24:42.345Z,92902.91
2023-05-24T06:26:13.962Z,92904.13
2023-05-24T06:27:45.895Z,92898.88
2023-05-24T06:29:20.586Z,92894.56
2023-05-24T06:30:52.655Z,92906.59
2023-05-24T06:32:24.882Z,92906.41
2023-05-24T06:35:34.124Z,92896.47
2023-05-24T06:37:05.782Z,92907.19
2023-05-24T06:38:37.428Z,92904.22
2023-05-24T06:40:09.908Z,92904.47
2023-05-24T06:41:42.425Z,92902.66
2023-05-24T06:43:14.647Z,92897.31
2023-05-24T06:44:46.199Z,92900.91
2023-05-24T06:46:18.172Z,92898.84
2023-05-24T06:47:50.011Z,92897.63
2023-05-24T06:49:22.685Z,92893.28
2023-05-24T06:50:54.585Z,92894.25
2023-05-24T06:52:26.898Z,92900.50
2023-05-24T06:53:58.846Z,92898.19
2023-05-24T06:55:30.543Z,92897.53
2023-05-24T06:57:03.920Z,92892.16
2023-05-24T06:58:37.017Z,92893.22
2023-05-24T07:00:12.245Z,92892.16
2023-05-24T07:01:44.956Z,92888.88
2023-05-24T07:03:17.432Z,92891.84
2023-05-24T07:04:49.609Z,92896.41
2023-05-24T07:06:22.091Z,92891.75
2023-05-24T07:07:55.467Z,92900.38
2023-05-24T07:09:27.118Z,92896.59
2023-05-24T07:10:58.867Z,92893.97
2023-05-24T07:12:32.691Z,92894.56
2023-05-24T07:14:04.872Z,92895.09
2023-05-24T07:15:36.682Z,92896.03
2023-05-24T07:17:08.410Z,92892.25
2023-05-24T07:18:42.574Z,92896.31
2023-05-24T07:20:15.731Z,92892.53
2023-05-24T07:21:48.005Z,92896.56
2023-05-24T07:23:19.874Z,92895.44
2023-05-24T07:24:52.034Z,92898.22
2023-05-24T07:26:27.081Z,92899.41
2023-05-24T07:27:59.770Z,92904.19
2023-05-24T07:29:31.943Z,92898.38
2023-05-24T07:31:04.112Z,92895.22
2023-05-24T07:32:37.037Z,92888.22
2023-05-24T07:34:09.281Z,92889.84
2023-05-24T07:35:42.025Z,92897.31
2023-05-24T07:37:15.392Z,92896.16
2023-05-24T07:38:47.467Z,92889.50
2023-05-24T07:40:19.823Z,92892.28
2023-05-24T07:41:52.291Z,92893.06
2023-05-24T07:43:24.377Z,92898.97
2023-05-24T07:44:56.597Z,92895.09
2023-05-24T07:46:28.252Z,92889.59
2023-05-24T07:48:01.426Z,92888.41
2023-05-24T07:49:33.187Z,92885.31
2023-05-24T07:51:04.849Z,92890.00
2023-05-24T07:52:36.964Z,92884.53
2023-05-24T07:54:08.557Z,92888.09
2023-05-24T07:55:40.873Z,92892.00
2023-05-24T07:57:13.176Z,92886.53
2023-05-24T07:58:47.085Z,92895.56
2023-05-24T08:00:20.340Z,92888.47
2023-05-24T08:01:53.309Z,92887.69
2023-05-24T08:03:26.080Z,92889.66
2023-05-24T08:04:58.299Z,92898.66
2023-05-24T08:06:33.113Z,92892.41
2023-05-24T08:08:05.068Z,92888.84
2023-05-24T08:09:39.064Z,92884.53
2023-05-24T08:11:11.367Z,92888.84
2023-05-24T08:12:44.352Z,92888.47
2023-05-24T08:14:18.852Z,92889.28
2023-05-24T08:15:52.512Z,92885.34
2023-05-24T08:17:25.514Z,92887.66
2023-05-24T08:18:57.975Z,92887.66
2023-05-24T08:20:31.242Z,92884.91
2023-05-24T08:22:06.755Z,92882.13
2023-05-24T08:23:38.572Z,92883.25
2023-05-24T08:25:11.156Z,92889.91
2023-05-24T08:26:45.343Z,92885.53
2023-05-24T08:28:17.877Z,92883.19
2023-05-24T08:29:50.251Z,92879.66
2023-05-24T08:31:31.627Z,92882.78
2023-05-24T08:33:04.097Z,92885.13
2023-05-24T08:34:38.627Z,92884.69
2023-05-24T08:36:10.515Z,92877.19
2023-05-24T08:37:42.190Z,92880.34
2023-05-24T08:39:13.902Z,92880.69
2023-05-24T08:40:46.815Z,92884.28
2023-05-24T08:42:19.197Z,92880.34
2023-05-24T08:43:51.447Z,92881.88
2023-05-24T08:45:23.208Z,92884.94
2023-05-24T08:46:55.029Z,92886.44
2023-05-24T08:48:26.984Z,92886.38
2023-05-24T08:49:58.894Z,92889.53
2023-05-24T08:51:30.852Z,92886.44
2023-05-24T08:53:05.537Z,92887.66
2023-05-24T08:54:37.224Z,92891.66
2023-05-24T08:56:12.170Z,92881.06
2023-05-24T08:57:44.231Z,92880.28
2023-05-24T08:59:16.023Z,92884.22
2023-05-24T09:00:47.707Z,92882.66
2023-05-24T09:02:19.392Z,92879.44
2023-05-24T09:03:51.442Z,92875.44
2023-05-24T09:05:23.477Z,92873.41
2023-05-24T09:06:55.143Z,92878.53
2023-05-24T09:08:27.845Z,92873.00
2023-05-24T09:10:05.393Z,92886.31
2023-05-24T09:11:39.372Z,92883.97
2023-05-24T09:13:11.234Z,92882.38
2023-05-24T09:14:43.867Z,92883.50
2023-05-24T09:16:16.075Z,92874.41
2023-05-24T09:17:48.248Z,92875.16
2023-05-24T09:19:20.375Z,92876.28
2023-05-24T09:20:52.150Z,92880.63
2023-05-24T09:22:26.306Z,92873.97
2023-05-24T09:23:58.161Z,92877.97
2023-05-24T09:25:30.288Z,92876.94
2023-05-24T09:27:05.954Z,92878.97
2023-05-24T09:28:38.069Z,92880.16
2023-05-24T09:30:10.659Z,92880.06
2023-05-24T09:31:43.245Z,92876.88
2023-05-24T09:33:15.354Z,92881.53
2023-05-24T09:34:49.957Z,92879.06
2023-05-24T09:36:22.111Z,92876.22
2023-05-24T09:38:00.489Z,92881.34
2023-05-24T09:39:32.328Z,92886.06
2023-05-24T09:41:04.867Z,92875.13
2023-05-24T09:42:37.655Z,92879.56
2023-05-24T09:44:09.520Z,92867.88
2023-05-24T09:45:47.528Z,92875.78
2023-05-24T09:47:19.565Z,92870.31
2023-05-24T09:49:04.580Z,92869.22
2023-05-24T09:50:36.807Z,92863.75
2023-05-24T09:52:08.600Z,92863.31
2023-05-24T09:53:40.986Z,92863.63
2023-05-24T09:55:19.604Z,92862.78
2023-05-24T09:56:51.827Z,92866.63
2023-05-24T09:58:23.680Z,92870.44
2023-05-24T09:59:57.203Z,92861.31
2023-05-24T10:01:30.174Z,92864.72
2023-05-24T10:03:07.742Z,92869.72
2023-05-24T10:04:40.113Z,92866.47
2023-05-24T10:06:12.184Z,92865.16
2023-05-24T10:07:43.839Z,92864.97
2023-05-24T10:09:15.775Z,92867.31
2023-05-24T10:10:47.421Z,92868.06
2023-05-24T10:12:19.150Z,92869.19
2023-05-24T10:13:51.312Z,92868.75
2023-05-24T10:15:23.614Z,92863.16
2023-05-24T10:16:55.523Z,92857.97
2023-05-24T10:18:27.224Z,92860.56
2023-05-24T10:19:59.533Z,92858.34
2023-05-24T10:21:35.019Z,92856.16
2023-05-24T10:23:08.066Z,92854.91
2023-05-24T10:24:44.468Z,92859.88
2023-05-24T10:26:16.747Z,92859.81
2023-05-24T10:27:53.217Z,92853.50
2023-05-24T10:29:28.192Z,92858.31
2023-05-24T10:31:00.152Z,92851.31
2023-05-24T10:32:32.867Z,92849.41
2023-05-24T10:34:08.908Z,92850.09
2023-05-24T10:35:41.058Z,92849.91
2023-05-24T10:37:12.796Z,92858.69
2023-05-24T10:38:46.760Z,92847.88
2023-05-24T10:40:22.874Z,92845.00
2023-05-24T10:41:57.731Z,92847.19
2023-05-24T10:43:29.457Z,92842.16
2023-05-24T10:45:21.866Z,92840.31
2023-05-24T10:47:12.747Z,92842.84
2023-05-24T10:48:44.971Z,92844.91
2023-05-24T10:50:22.583Z,92841.44
2023-05-24T10:52:00.656Z,92837.59
2023-05-24T10:53:32.495Z,92832.44
2023-05-24T10:55:10.335Z,92834.69
2023-05-24T10:56:46.026Z,92827.44
2023-05-24T10:58:17.677Z,92826.75
2023-05-24T10:59:49.506Z,92828.78
2023-05-24T11:01:33.838Z,92826.16
2023-05-24T11:03:09.184Z,92828.63
2023-05-24T11:05:22.454Z,92823.31
2023-05-24T11:07:06.654Z,92820.66
2023-05-24T11:08:50.708Z,92820.91
2023-05-24T11:10:30.028Z,92818.03
2023-05-24T11:12:09.983Z,92813.72
2023-05-24T11:13:42.007Z,92816.06
2023-05-24T11:15:13.687Z,92808.47
2023-05-24T11:16:45.969Z,92816.69
2023-05-24T11:18:18.637Z,92819.38
2023-05-24T11:19:53.893Z,92811.09
2023-05-24T11:21:27.002Z,92810.38
2023-05-24T11:23:02.516Z,92813.47
2023-05-24T11:24:34.470Z,92813.25
2023-05-24T11:26:10.231Z,92813.75
2023-05-24T11:27:43.304Z,92808.69
2023-05-24T11:29:22.764Z,92808.94
2023-05-24T11:30:55.373Z,92806.34
2023-05-24T11:32:27.771Z,92807.47
2023-05-24T11:34:00.734Z,92805.66
2023-05-24T11:35:32.708Z,92805.25
2023-05-24T11:37:05.674Z,92815.06
2023-05-24T11:38:40.575Z,92805.16
2023-05-24T11:40:13.436Z,92806.72
2023-05-24T11:41:45.144Z,92801.94
2023-05-24T11:43:20.549Z,92802.97
2023-05-24T11:44:52.346Z,92803.22
2023-05-24T11:46:24.056Z,92805.06
2023-05-24T11:47:56.184Z,92800.22
2023-05-24T11:49:31.065Z,92801.94
2023-05-24T11:51:05.557Z,92801.94
2023-05-24T11:52:46.412Z,92798.66
2023-05-24T11:54:21.847Z,92802.44
2023-05-24T11:55:54.800Z,92799.00
2023-05-24T11:57:40.564Z,92788.72
2023-05-24T11:59:16.045Z,92779.47
2023-05-24T12:00:48.061Z,92784.72
2023-05-24T12:02:20.095Z,92785.97
2023-05-24T12:03:55.050Z,92779.81
2023-05-24T12:05:27.498Z,92780.38
2023-05-24T12:06:59.559Z,92777.06
2023-05-24T12:08:31.451Z,92778.03
2023-05-24T12:10:04.520Z,92777.06
2023-05-24T12:11:44.969Z,92774.91
2023-05-24T12:13:29.404Z,92768.22
2023-05-24T12:15:07.411Z,92769.53
2023-05-24T12:16:39.105Z,92761.66
2023-05-24T12:18:26.261Z,92767.50
2023-05-24T12:19:58.549Z,92759.31
2023-05-24T12:21:30.784Z,92755.72
2023-05-24T12:23:03.262Z,92753.19
2023-05-24T12:24:35.576Z,92753.44
2023-05-24T12:26:10.879Z,92748.06
2023-05-24T12:27:48.196Z,92752.38
2023-05-24T12:29:20.156Z,92758.81
2023-05-24T12:30:54.294Z,92756.59
2023-05-24T12:32:26.039Z,92757.94
2023-05-24T12:33:57.889Z,92759.25
2023-05-24T12:35:29.562Z,92757.34
2023-05-24T12:37:01.500Z,92751.13
2023-05-24T12:38:33.236Z,92749.47
2023-05-24T12:40:14.529Z,92753.66
2023-05-24T12:41:46.514Z,92746.53
2023-05-24T12:43:19.598Z,92754.22
2023-05-24T12:44:53.136Z,92751.00
2023-05-24T12:46:24.771Z,92754.91
2023-05-24T12:47:57.903Z,92752.00
2023-05-24T12:49:29.945Z,92747.81
2023-05-24T12:51:02.693Z,92750.66
2023-05-24T12:52:34.383Z,92752.38
2023-05-24T12:54:06.252Z,92740.72
2023-05-24T12:55:37.871Z,92747.22
2023-05-24T12:57:09.652Z,92750.28
2023-05-24T12:58:41.633Z,92747.91
2023-05-24T13:00:13.470Z,92756.63
2023-05-24T13:01:50.944Z,92748.00
2023-05-24T13:03:23.049Z,92748.06
2023-05-24T13:04:54.937Z,92744.50
2023-05-24T13:06:26.529Z,92746.13
2023-05-24T13:07:58.626Z,92742.38
2023-05-24T13:09:32.764Z,92742.53
2023-05-24T13:11:04.852Z,92743.38
2023-05-24T13:12:37.160Z,92736.13
2023-05-24T13:14:08.836Z,92742.75
2023-05-24T13:15:42.189Z,92731.88
2023-05-24T13:17:16.443Z,92730.63
2023-05-24T13:18:48.388Z,92735.00
2023-05-24T13:20:22.387Z,92732.47
2023-05-24T13:21:57.511Z,92729.47
2023-05-24T13:23:29.403Z,92736.50
2023-05-24T13:25:04.858Z,92724.13
2023-05-24T13:26:52.230Z,92721.91
2023-05-24T13:28:25.865Z,92725.16
2023-05-24T13:30:01.240Z,92728.88
2023-05-24T13:31:34.197Z,92731.00
2023-05-24T13:33:06.093Z,92725.63
2023-05-24T13:34:38.386Z,92719.94
2023-05-24T13:36:09.967Z,92730.25
2023-05-24T13:37:41.576Z,92725.03
2023-05-24T13:39:16.276Z,92721.22
2023-05-24T13:40:48.783Z,92723.66
2023-05-24T13:42:21.538Z,92724.50
2023-05-24T13:43:53.782Z,92723.72
2023-05-24T13:45:25.564Z,92718.28
2023-05-24T13:46:57.586Z,92719.75
2023-05-24T13:48:29.679Z,92720.19
2023-05-24T13:50:02.076Z,92718.53
2023-05-24T13:51:34.048Z,92723.66
2023-05-24T13:53:05.662Z,92711.09
2023-05-24T13:54:37.397Z,92716.28
2023-05-24T13:56:09.077Z,92719.91
2023-05-24T13:57:51.368Z,92720.78
2023-05-24T13:59:23.850Z,92717.97
2023-05-24T14:00:56.783Z,92723.88
2023-05-24T14:02:28.542Z,92722.22
2023-05-24T14:04:01.622Z,92710.34
2023-05-24T14:05:33.783Z,92719.19
2023-05-24T14:07:08.240Z,92717.56
2023-05-24T14:08:40.215Z,92719.41
2023-05-24T14:10:16.591Z,92722.44
2023-05-24T14:11:49.109Z,92721.97
2023-05-24T14:14:07.054Z,92719.41
2023-05-24T14:15:13.224Z,92726.88
2023-05-24T14:16:45.621Z,92721.28
2023-05-24T14:18:18.773Z,92718.22
2023-05-24T14:19:50.717Z,92719.31
2023-05-24T14:21:23.519Z,92710.03
2023-05-24T14:22:58.387Z,92713.84
2023-05-24T14:24:30.692Z,92714.38
2023-05-24T14:26:02.376Z,92709.75
2023-05-24T14:27:34.184Z,92707.47
2023-05-24T14:29:06.252Z,92714.66
2023-05-24T14:30:39.949Z,92710.41
2023-05-24T14:32:12.331Z,92709.97
2023-05-24T14:33:44.275Z,92711.41
2023-05-24T14:35:16.687Z,92710.03
2023-05-24T14:36:49.088Z,92716.53
2023-05-24T14:38:23.592Z,92713.69
2023-05-24T14:39:55.713Z,92707.66
2023-05-24T14:41:27.890Z,92706.28
2023-05-24T14:43:00.215Z,92700.97
2023-05-24T14:44:31.865Z,92697.13
2023-05-24T14:46:03.703Z,92706.63
2023-05-24T14:47:36.023Z,92707.38
2023-05-24T14:49:08.777Z,92708.09
2023-05-24T14:50:40.609Z,92710.41
2023-05-24T14:52:12.165Z,92713.41
2023-05-24T14:53:44.072Z,92712.47
2023-05-24T14:55:16.338Z,92711.53
2023-05-24T14:56:48.384Z,92707.56
2023-05-24T14:58:20.421Z,92709.13
2023-05-24T14:59:52.224Z,92706.81
2023-05-24T15:01:24.113Z,92706.63
2023-05-24T15:02:55.944Z,92701.28
2023-05-24T15:04:28.343Z,92697.84
2023-05-24T15:06:00.121Z,92699.59
2023-05-24T15:07:32.299Z,92697.31
2023-05-24T15:09:04.139Z,92698.88
2023-05-24T15:10:35.822Z,92702.03
2023-05-24T15:12:09.329Z,92698.50
2023-05-24T15:13:41.301Z,92693.75
2023-05-24T15:15:13.915Z,92699.69
2023-05-24T15:16:46.221Z,92704.38
2023-05-24T15:18:18.440Z,92703.13
2023-05-24T15:19:50.222Z,92711.06
2023-05-24T15:21:23.130Z,92707.97
2023-05-24T15:22:55.797Z,92706.13
2023-05-24T15:24:27.702Z,92705.84
2023-05-24T15:26:03.145Z,92701.63
2023-05-24T15:27:34.779Z,92715.84
2023-05-24T15:29:07.220Z,92703.31
2023-05-24T15:30:39.352Z,92709.56
2023-05-24T15:32:11.650Z,92703.34
2023-05-24T15:33:43.727Z,92706.91
2023-05-24T15:35:16.291Z,92706.88
2023-05-24T15:36:48.144Z,92712.78
2023-05-24T15:38:20.078Z,92710.81
2023-05-24T15:39:52.970Z,92719.03
2023-05-24T15:41:24.866Z,92715.53
2023-05-24T15:42:57.369Z,92713.22
2023-05-24T15:44:29.112Z,92725.41
2023-05-24T15:46:00.913Z,92726.22
2023-05-24T15:47:38.217Z,92725.91
2023-05-24T15:49:09.850Z,92723.94
2023-05-24T15:52:16.851Z,92731.66
2023-05-24T15:53:49.486Z,92734.84
2023-05-24T15:55:21.658Z,92734.44
2023-05-24T15:56:53.735Z,92739.88
2023-05-24T15:58:25.464Z,92737.50
2023-05-24T15:59:57.210Z,92732.84
2023-05-24T16:01:29.121Z,92740.13
2023-05-24T16:03:00.907Z,92739.13
2023-05-24T16:04:33.060Z,92736.00
2023-05-24T16:06:05.472Z,92739.63
2023-05-24T16:07:37.759Z,92738.84
2023-05-24T16:09:10.209Z,92743.22
2023-05-24T16:10:43.362Z,92740.88
2023-05-24T16:12:15.552Z,92744.50
2023-05-24T16:13:48.267Z,92744.91
2023-05-24T16:15:20.901Z,92743.66
2023-05-24T16:16:53.052Z,92744.03
2023-05-24T16:18:27.086Z,92750.34
2023-05-24T16:19:59.718Z,92747.28
2023-05-24T16:21:33.492Z,92751.66
2023-05-24T16:23:08.479Z,92749.66
2023-05-24T16:24:40.918Z,92747.69
2023-05-24T16:26:12.922Z,92748.84
2023-05-24T16:27:44.822Z,92751.19
2023-05-24T16:29:18.234Z,92751.16
2023-05-24T16:30:52.639Z,92748.78
2023-05-24T16:32:24.457Z,92752.69
2023-05-24T16:33:56.758Z,92758.59
2023-05-24T16:35:28.629Z,92754.28
2023-05-24T16:37:00.221Z,92752.34
2023-05-24T16:38:32.270Z,92752.78
2023-05-24T16:40:05.426Z,92748.91
2023-05-24T16:41:38.668Z,92753.25
2023-05-24T16:43:10.989Z,92747.44
2023-05-24T16:44:42.639Z,92749.81
2023-05-24T16:46:15.041Z,92757.75
2023-05-24T16:47:47.495Z,92747.97
2023-05-24T16:49:20.082Z,92751.94
2023-05-24T16:50:54.483Z,92753.94
2023-05-24T16:52:27.260Z,92755.56
2023-05-24T16:53:59.489Z,92756.78
2023-05-24T16:55:31.688Z,92754.44
2023-05-24T16:57:04.176Z,92756.47
2023-05-24T16:58:36.180Z,92752.56
2023-05-24T17:00:08.283Z,92755.75
2023-05-24T17:01:40.719Z,92751.41
2023-05-24T17:03:12.674Z,92758.88
2023-05-24T17:04:45.025Z,92754.56
2023-05-24T17:06:24.317Z,92769.13
2023-05-24T17:07:56.515Z,92763.69
2023-05-24T17:09:28.270Z,92759.00
2023-05-24T17:11:00.063Z,92761.38
2023-05-24T17:12:31.923Z,92770.38
2023-05-24T17:14:04.520Z,92763.72
2023-05-24T17:15:36.267Z,92766.84
2023-05-24T17:17:11.141Z,92766.88
2023-05-24T17:18:43.725Z,92764.50
2023-05-24T17:20:15.854Z,92768.81
2023-05-24T17:21:48.233Z,92768.03
2023-05-24T17:23:21.057Z,92774.28
2023-05-24T17:24:54.158Z,92777.41
2023-05-24T17:26:27.249Z,92777.84
2023-05-24T17:28:00.540Z,92784.09
2023-05-24T17:29:32.590Z,92784.88
2023-05-24T17:31:05.567Z,92784.50
2023-05-24T17:32:37.388Z,92785.28
2023-05-24T17:34:08.984Z,92782.53
2023-05-24T17:35:43.026Z,92787.63
2023-05-24T17:37:14.930Z,92787.22
2023-05-24T17:38:46.745Z,92791.13
2023-05-24T17:40:18.445Z,92784.06
2023-05-24T17:41:50.337Z,92788.34
2023-05-24T17:43:23.081Z,92786.34
2023-05-24T17:44:55.217Z,92786.34
2023-05-24T17:46:27.627Z,92791.78
2023-05-24T17:47:59.615Z,92792.88
2023-05-24T17:49:32.544Z,92795.56
2023-05-24T17:51:04.795Z,92793.19
2023-05-24T17:52:37.100Z,92793.50
2023-05-24T17:54:08.901Z,92795.03
2023-05-24T17:55:40.765Z,92798.50
2023-05-24T17:57:12.677Z,92800.03
2023-05-24T17:58:45.514Z,92798.38
2023-05-24T18:00:19.220Z,92808.50
2023-05-24T18:01:51.096Z,92810.44
2023-05-24T18:03:24.148Z,92805.31
2023-05-24T18:04:56.044Z,92808.03
2023-05-24T18:06:27.869Z,92810.38
2023-05-24T18:07:59.677Z,92815.06
2023-05-24T18:09:31.918Z,92813.91
2023-05-24T18:11:08.493Z,92819.06
2023-05-24T18:12:40.613Z,92823.78
2023-05-24T18:14:12.324Z,92835.09
2023-05-24T18:15:44.711Z,92831.19
2023-05-24T18:17:16.833Z,92837.41